Time;durP1;ratioP1;P1;durP2;ratioP2;P2;SDS_P1;SDS_P2;PMS_P1;PMS_P2;Temp;Humidity;BMP_temperature;BMP_pressure;BME280_temperature;BME280_humidity;BME280_pressure;Samples;Min_cycle;Max_cycle;Signal;HPM_P1;HPM_P2
2022/12/14 00:00:41;;;;;;;30.58;12.88;;;-1.50;82.60;;;;;;9177960;19;19930;-67
2022/12/14 00:03:48;;;;;;;46.53;16.92;;;-1.50;82.50;;;;;;9177796;19;20022;-69
2022/12/14 00:06:52;;;;;;;42.88;17.88;;;-1.60;82.50;;;;;;9178224;19;20022;-69
2022/12/14 00:09:56;;;;;;;43.83;17.83;;;-1.60;82.60;;;;;;9176354;19;20015;-67
2022/12/14 00:12:59;;;;;;;38.83;15.73;;;-1.60;82.50;;;;;;9174819;19;20015;-68
2022/12/14 00:16:08;;;;;;;37.13;17.48;;;-1.60;82.50;;;;;;9177749;19;20094;-68
2022/12/14 00:19:14;;;;;;;43.85;17.20;;;-1.60;82.60;;;;;;9174869;19;20022;-67
2022/12/14 00:22:18;;;;;;;48.05;18.02;;;-1.60;82.60;;;;;;9173033;19;20010;-69
2022/12/14 00:25:22;;;;;;;39.28;16.88;;;-1.60;82.60;;;;;;9176533;19;20361;-68
2022/12/14 00:28:26;;;;;;;43.95;19.30;;;-1.70;82.50;;;;;;9175632;19;20427;-68
2022/12/14 00:31:32;;;;;;;38.03;17.40;;;-1.70;82.50;;;;;;9175104;19;20017;-65
2022/12/14 00:34:37;;;;;;;41.35;18.27;;;-1.70;82.60;;;;;;9177315;19;20088;-68
2022/12/14 00:37:41;;;;;;;37.97;17.02;;;-1.70;82.60;;;;;;9174002;19;20015;-67
2022/12/14 00:40:45;;;;;;;44.65;16.50;;;-1.70;82.60;;;;;;9176282;19;20108;-67
2022/12/14 00:43:49;;;;;;;41.10;17.15;;;-1.70;82.60;;;;;;9176565;19;20011;-66
2022/12/14 00:46:53;;;;;;;42.67;16.63;;;-1.70;82.60;;;;;;9176648;19;20549;-70
2022/12/14 00:49:58;;;;;;;41.55;17.48;;;-1.80;82.60;;;;;;9174661;19;20018;-69
2022/12/14 00:53:02;;;;;;;44.17;17.05;;;-1.80;82.50;;;;;;9173926;19;20030;-66
2022/12/14 00:56:08;;;;;;;41.53;16.60;;;-1.80;82.60;;;;;;9190261;19;20025;-68
2022/12/14 00:59:11;;;;;;;39.72;15.93;;;-1.80;82.60;;;;;;9189973;19;20018;-68
2022/12/14 01:02:15;;;;;;;38.58;16.50;;;-1.80;82.60;;;;;;9194579;19;20014;-67
2022/12/14 01:05:21;;;;;;;38.55;17.00;;;-1.80;82.60;;;;;;9192810;19;20026;-68
2022/12/14 01:08:25;;;;;;;41.47;16.73;;;-1.80;82.60;;;;;;9191738;19;20017;-69
2022/12/14 01:11:28;;;;;;;39.78;16.25;;;-1.80;82.60;;;;;;9188942;19;20018;-67
2022/12/14 01:14:32;;;;;;;;;;;-1.80;82.60;;;;;;9193063;19;20085;-67
2022/12/14 01:17:36;;;;;;;49.15;17.13;;;-1.80;82.60;;;;;;9189823;19;20271;-67
2022/12/14 01:20:42;;;;;;;39.70;16.38;;;-1.80;82.50;;;;;;9186482;19;20018;-68
2022/12/14 01:23:49;;;;;;;41.92;15.80;;;-1.80;82.50;;;;;;9192399;19;20424;-67
2022/12/14 01:26:53;;;;;;;36.47;15.15;;;-1.90;82.50;;;;;;9192998;19;20026;-66
2022/12/14 01:29:56;;;;;;;;;;;-1.90;82.50;;;;;;9194287;19;20362;-67
2022/12/14 01:33:00;;;;;;;45.15;16.45;;;-1.80;82.60;;;;;;9191290;19;19986;-68
2022/12/14 01:36:11;;;;;;;37.22;15.25;;;-1.80;82.60;;;;;;9192520;19;20021;-68
2022/12/14 01:39:16;;;;;;;37.00;15.48;;;-1.90;82.50;;;;;;9189530;19;20015;-68
2022/12/14 01:42:20;;;;;;;39.50;15.60;;;-1.90;82.50;;;;;;9191227;19;20014;-65
2022/12/14 01:45:24;;;;;;;42.63;15.80;;;-1.90;82.50;;;;;;9192037;19;20011;-65
2022/12/14 01:48:28;;;;;;;42.40;15.38;;;-1.90;82.50;;;;;;9191569;19;20022;-65
2022/12/14 01:51:35;;;;;;;40.05;15.00;;;-1.90;82.50;;;;;;9189994;19;20034;-66
2022/12/14 01:54:43;;;;;;;39.38;14.98;;;-1.90;82.60;;;;;;9191426;19;20074;-67
2022/12/14 01:57:58;;;;;;;34.75;14.60;;;-1.90;82.50;;;;;;9189704;19;20018;-66
2022/12/14 02:01:03;;;;;;;37.40;15.20;;;-1.90;82.60;;;;;;9190725;19;20462;-64
2022/12/14 02:04:08;;;;;;;38.17;14.68;;;-1.90;82.50;;;;;;9190707;19;20344;-66
2022/12/14 02:07:16;;;;;;;39.40;14.65;;;-1.90;82.50;;;;;;9181237;19;20018;-67
2022/12/14 02:10:22;;;;;;;38.53;14.45;;;-2.00;82.40;;;;;;9181701;19;20055;-65
2022/12/14 02:13:30;;;;;;;34.35;13.82;;;-1.90;82.40;;;;;;9179565;19;20045;-65
2022/12/14 02:16:34;;;;;;;41.30;14.82;;;-1.90;82.40;;;;;;9181175;19;20011;-65
2022/12/14 02:19:39;;;;;;;36.00;13.52;;;-2.00;82.30;;;;;;9179115;19;20018;-65
2022/12/14 02:23:23;;;;;;;39.70;15.02;;;-2.00;82.30;;;;;;9181425;19;20018;-66
2022/12/14 02:26:51;;;;;;;31.38;13.13;;;-2.00;82.30;;;;;;9179144;19;20010;-65
2022/12/14 02:30:06;;;;;;;34.80;14.10;;;-2.00;82.40;;;;;;9181250;19;20021;-66
2022/12/14 02:33:28;;;;;;;36.85;13.48;;;-2.00;82.40;;;;;;9180668;19;20048;-65
2022/12/14 02:36:40;;;;;;;39.30;13.35;;;-2.10;82.30;;;;;;9179951;19;20043;-67
2022/12/14 02:39:54;;;;;;;33.13;12.90;;;-2.10;82.30;;;;;;9177043;19;20044;-65
2022/12/14 02:43:08;;;;;;;32.50;12.75;;;-2.10;82.30;;;;;;9180714;19;20018;-65
2022/12/14 02:46:21;;;;;;;32.53;13.82;;;-2.10;82.30;;;;;;9178467;19;20515;-65
2022/12/14 02:49:38;;;;;;;36.95;13.77;;;-2.10;82.30;;;;;;9180223;19;20031;-66
2022/12/14 02:52:48;;;;;;;37.08;12.93;;;-2.20;82.20;;;;;;9180221;19;20348;-65
2022/12/14 02:55:54;;;;;;;37.83;13.25;;;-2.20;82.20;;;;;;9180339;19;20031;-65
2022/12/14 02:58:59;;;;;;;40.17;13.43;;;-2.20;82.20;;;;;;9178743;19;20359;-65
2022/12/14 03:02:06;;;;;;;37.65;13.52;;;-2.20;82.20;;;;;;9176650;19;20492;-65
2022/12/14 03:05:11;;;;;;;30.52;12.38;;;-2.30;82.20;;;;;;9179276;19;20029;-65
2022/12/14 03:08:17;;;;;;;36.63;13.27;;;-2.30;82.20;;;;;;9180220;19;20460;-65
2022/12/14 03:11:24;;;;;;;32.33;13.57;;;-2.30;82.20;;;;;;9179469;19;20039;-66
2022/12/14 03:14:33;;;;;;;34.35;13.75;;;-2.30;82.20;;;;;;9179075;19;20018;-65
2022/12/14 03:17:40;;;;;;;28.95;13.10;;;-2.30;82.20;;;;;;9178055;19;20023;-65
2022/12/14 03:20:48;;;;;;;30.80;12.65;;;-2.40;82.10;;;;;;9174536;19;20031;-65
2022/12/14 03:23:54;;;;;;;31.17;12.18;;;-2.40;82.10;;;;;;9178591;19;20463;-65
2022/12/14 03:27:02;;;;;;;36.17;12.57;;;-2.40;82.10;;;;;;9179378;19;20101;-65
2022/12/14 03:30:09;;;;;;;28.60;11.43;;;-2.50;82.10;;;;;;9178593;19;20015;-65
2022/12/14 03:33:18;;;;;;;29.08;12.07;;;-2.50;82.10;;;;;;9179208;19;20026;-65
2022/12/14 03:36:28;;;;;;;27.10;11.95;;;-2.50;82.10;;;;;;9178642;19;20481;-67
2022/12/14 03:39:35;;;;;;;30.52;11.75;;;-2.60;82.10;;;;;;9174477;19;20011;-66
2022/12/14 03:42:44;;;;;;;28.90;11.70;;;-2.60;82.10;;;;;;9178998;19;20053;-66
2022/12/14 03:45:59;;;;;;;33.15;12.75;;;-2.60;82.10;;;;;;9178106;19;20050;-66
2022/12/14 03:49:14;;;;;;;29.58;11.82;;;-2.60;82.10;;;;;;9178230;19;20479;-66
2022/12/14 03:52:26;;;;;;;28.40;12.20;;;-2.60;82.20;;;;;;9178756;19;20014;-67
2022/12/14 03:55:36;;;;;;;30.20;11.85;;;-2.70;82.10;;;;;;9178532;19;20487;-64
2022/12/14 03:58:49;;;;;;;32.05;11.98;;;-2.70;82.10;;;;;;9176084;19;20024;-64
2022/12/14 04:02:05;;;;;;;31.55;11.95;;;-2.80;82.10;;;;;;9177780;19;20383;-65
2022/12/14 04:05:16;;;;;;;27.35;12.18;;;-2.80;82.00;;;;;;9178483;19;20357;-66
2022/12/14 04:08:29;;;;;;;26.42;11.73;;;-2.80;82.10;;;;;;9175612;19;20018;-65
2022/12/14 04:21:43;;;;;;;27.20;11.05;;;-2.90;82.00;;;;;;9172894;19;20042;-66
2022/12/14 04:29:55;;;;;;;25.00;10.60;;;-2.90;82.10;;;;;;9176942;19;20296;-66
2022/12/14 04:31:38;;;;;;;27.05;10.10;;;-3.00;82.00;;;;;;9175321;19;20040;-66
2022/12/14 04:34:46;;;;;;;25.80;10.45;;;-3.00;82.10;;;;;;9176966;19;20086;-66
2022/12/14 04:37:56;;;;;;;27.85;11.32;;;-3.00;82.00;;;;;;9176333;19;20625;-65
2022/12/14 04:41:04;;;;;;;30.48;10.95;;;-3.00;82.00;;;;;;9177585;19;20021;-66
2022/12/14 04:44:14;;;;;;;29.52;11.75;;;-3.10;82.00;;;;;;9176956;19;20487;-65
2022/12/14 04:47:19;;;;;;;25.55;9.82;;;-3.10;82.00;;;;;;9176454;19;20010;-66
2022/12/14 04:50:27;;;;;;;26.15;10.20;;;-3.10;81.90;;;;;;9177467;19;20474;-65
2022/12/14 04:53:36;;;;;;;29.08;10.07;;;-3.10;82.00;;;;;;9176352;19;20020;-66
2022/12/14 04:56:47;;;;;;;26.23;9.70;;;-3.10;82.00;;;;;;9172227;19;20027;-65
2022/12/14 04:59:51;;;;;;;24.77;9.40;;;-3.10;81.90;;;;;;9172778;19;20737;-65
2022/12/14 05:03:14;;;;;;;24.10;9.23;;;-3.10;82.00;;;;;;9173887;19;20006;-66
2022/12/14 05:06:25;;;;;;;16.35;7.65;;;-3.20;81.90;;;;;;9175434;19;20026;-65
2022/12/14 05:09:34;;;;;;;23.15;8.88;;;-3.20;81.90;;;;;;9175379;19;20019;-65
2022/12/14 05:12:44;;;;;;;24.02;10.30;;;-3.20;82.00;;;;;;9175384;19;20641;-65
2022/12/14 05:15:50;;;;;;;25.02;9.50;;;-3.20;81.90;;;;;;9175439;19;20044;-65
2022/12/14 05:18:53;;;;;;;27.65;9.70;;;-3.20;81.90;;;;;;9172593;19;20026;-65
2022/12/14 05:21:57;;;;;;;24.48;9.65;;;-3.20;81.90;;;;;;9170313;19;20508;-65
2022/12/14 05:25:03;;;;;;;22.45;10.15;;;-3.20;82.00;;;;;;9174118;19;20021;-66
2022/12/14 05:28:07;;;;;;;24.02;10.10;;;-3.20;81.90;;;;;;9174612;19;20487;-65
2022/12/14 05:31:11;;;;;;;25.15;9.93;;;-3.30;81.90;;;;;;9174830;19;20070;-65
2022/12/14 05:34:15;;;;;;;25.50;10.07;;;-3.30;81.90;;;;;;9174987;19;20018;-66
2022/12/14 05:37:18;;;;;;;21.42;9.50;;;-3.30;81.90;;;;;;9174311;19;20018;-66
2022/12/14 05:40:24;;;;;;;20.88;8.98;;;-3.30;81.90;;;;;;9170978;19;20068;-66
2022/12/14 05:43:28;;;;;;;22.52;10.05;;;-3.30;81.90;;;;;;9180366;19;20021;-67
2022/12/14 05:46:32;;;;;;;30.33;10.43;;;-3.30;81.90;;;;;;9181958;19;20018;-65
2022/12/14 05:49:36;;;;;;;22.83;9.65;;;-3.30;81.90;;;;;;9182476;19;20463;-65
2022/12/14 05:52:40;;;;;;;23.83;9.88;;;-3.30;81.90;;;;;;9178524;19;20527;-66
2022/12/14 05:55:52;;;;;;;22.70;9.35;;;-3.30;81.90;;;;;;9180372;19;20018;-65
2022/12/14 05:58:56;;;;;;;24.05;9.70;;;-3.40;81.80;;;;;;9180848;19;20014;-65
2022/12/14 06:02:00;;;;;;;20.88;9.43;;;-3.40;81.80;;;;;;9180526;19;20018;-65
2022/12/14 06:05:04;;;;;;;24.17;9.15;;;-3.40;81.80;;;;;;9181856;19;20031;-66
2022/12/14 06:08:08;;;;;;;19.73;8.73;;;-3.40;81.80;;;;;;9181736;19;20024;-65
2022/12/14 06:11:16;;;;;;;28.33;10.25;;;-3.40;81.80;;;;;;9181252;19;20022;-65
2022/12/14 06:14:20;;;;;;;23.67;10.13;;;-3.50;81.70;;;;;;9181546;19;20034;-65
2022/12/14 06:17:24;;;;;;;24.02;10.05;;;-3.50;81.70;;;;;;9182010;19;20078;-65
2022/12/14 06:20:28;;;;;;;26.88;11.05;;;-3.50;81.70;;;;;;9172441;19;20348;-65
2022/12/14 06:23:32;;;;;;;22.42;10.38;;;-3.50;81.80;;;;;;9181558;19;20032;-65
2022/12/14 06:26:39;;;;;;;32.22;11.18;;;-3.60;81.70;;;;;;9181596;19;20014;-65
2022/12/14 06:29:43;;;;;;;27.63;11.75;;;-3.60;81.70;;;;;;9180772;19;20051;-65
2022/12/14 06:32:47;;;;;;;27.90;11.05;;;-3.60;81.60;;;;;;9181470;19;20043;-65
2022/12/14 06:35:50;;;;;;;30.95;11.95;;;-3.60;81.70;;;;;;9181076;19;20086;-64
2022/12/14 06:38:55;;;;;;;27.55;10.57;;;-3.60;81.70;;;;;;9179324;19;20023;-66
2022/12/14 06:42:01;;;;;;;31.20;11.80;;;-3.70;81.70;;;;;;9180698;19;20015;-66
2022/12/14 06:45:05;;;;;;;34.05;12.48;;;-3.70;81.60;;;;;;9180812;19;20364;-65
2022/12/14 06:48:09;;;;;;;26.20;11.35;;;-3.70;81.70;;;;;;9178145;19;20049;-65
2022/12/14 06:51:13;;;;;;;24.80;10.90;;;-3.70;81.60;;;;;;9178647;19;20048;-66
2022/12/14 06:54:17;;;;;;;31.88;12.95;;;-3.70;81.60;;;;;;9179371;19;20019;-64
2022/12/14 06:57:23;;;;;;;29.50;11.85;;;-3.70;81.70;;;;;;9180529;19;20026;-65
2022/12/14 07:00:27;;;;;;;30.92;12.65;;;-3.70;81.70;;;;;;9174637;19;20401;-65
2022/12/14 07:03:31;;;;;;;33.88;13.13;;;-3.70;81.70;;;;;;9178252;19;20348;-66
2022/12/14 07:06:38;;;;;;;26.50;11.57;;;-3.70;81.70;;;;;;9176280;19;20026;-66
2022/12/14 07:09:42;;;;;;;28.13;11.77;;;-3.70;81.70;;;;;;9178998;19;20026;-64
2022/12/14 07:12:47;;;;;;;26.58;10.98;;;-3.80;81.70;;;;;;9179370;19;20022;-66
2022/12/14 07:15:55;;;;;;;24.98;12.07;;;-3.80;81.60;;;;;;9178686;19;20071;-65
2022/12/14 07:18:59;;;;;;;30.23;11.48;;;-3.80;81.60;;;;;;9167267;19;20018;-66
2022/12/14 07:22:03;;;;;;;25.70;11.75;;;-3.80;81.60;;;;;;9167512;19;20025;-66
2022/12/14 07:25:08;;;;;;;30.52;11.35;;;-3.80;81.60;;;;;;9169718;19;20022;-65
2022/12/14 07:28:14;;;;;;;30.77;12.15;;;-3.80;81.70;;;;;;9172614;19;20026;-66
2022/12/14 07:31:20;;;;;;;31.33;12.52;;;-3.80;81.60;;;;;;9171846;19;20038;-64
2022/12/14 07:34:23;;;;;;;30.13;12.30;;;-3.90;81.50;;;;;;9171610;19;20763;-66
2022/12/14 07:37:27;;;;;;;28.67;11.43;;;-3.90;81.60;;;;;;9172782;19;20026;-65
2022/12/14 07:40:34;;;;;;;31.70;13.60;;;-3.90;81.50;;;;;;9168597;19;20077;-65
2022/12/14 07:43:41;;;;;;;27.98;11.50;;;-3.90;81.50;;;;;;9167169;19;20047;-66
2022/12/14 07:46:45;;;;;;;29.02;11.63;;;-4.00;81.50;;;;;;9170669;19;20437;-64
2022/12/14 07:49:49;;;;;;;30.92;11.45;;;-4.00;81.50;;;;;;9173369;19;20340;-64
2022/12/14 07:52:52;;;;;;;28.23;11.52;;;-4.00;81.50;;;;;;9174168;19;20535;-65
2022/12/14 07:55:56;;;;;;;36.35;12.55;;;-4.00;81.50;;;;;;9172689;19;20124;-65
2022/12/14 07:59:04;;;;;;;35.60;11.82;;;-4.00;81.50;;;;;;9175462;19;20785;-65
2022/12/14 08:02:12;;;;;;;33.22;13.00;;;-4.00;81.60;;;;;;9177083;19;20018;-63
2022/12/14 08:05:16;;;;;;;40.78;14.55;;;-4.10;81.50;;;;;;9174318;19;20023;-63
2022/12/14 08:08:20;;;;;;;26.75;12.35;;;-4.10;81.50;;;;;;9173173;19;20018;-65
2022/12/14 08:11:24;;;;;;;37.38;13.23;;;-4.10;81.40;;;;;;9111679;19;20022;-65
2022/12/14 08:14:30;;;;;;;32.90;12.15;;;-4.10;81.50;;;;;;9173089;19;20014;-65
2022/12/14 08:17:34;;;;;;;33.72;13.45;;;-4.10;81.50;;;;;;9172721;19;20053;-64
2022/12/14 08:20:37;;;;;;;37.35;13.32;;;-4.10;81.50;;;;;;9164840;19;20451;-64
2022/12/14 08:23:42;;;;;;;29.35;12.32;;;-4.20;81.40;;;;;;9173183;19;20057;-64
2022/12/14 08:26:46;;;;;;;30.90;12.15;;;-4.10;81.50;;;;;;9169254;19;20010;-66
2022/12/14 08:29:54;;;;;;;29.90;12.00;;;-4.20;81.40;;;;;;9175679;19;20034;-64
2022/12/14 08:32:58;;;;;;;34.80;12.00;;;-4.20;81.40;;;;;;9174831;19;20018;-64
2022/12/14 08:36:07;;;;;;;33.85;12.57;;;-4.20;81.40;;;;;;9129052;19;20014;-64
2022/12/14 08:39:12;;;;;;;30.08;11.23;;;-4.20;81.40;;;;;;9173573;19;20022;-64
2022/12/14 08:42:15;;;;;;;32.22;11.77;;;-4.20;81.40;;;;;;9177546;19;20053;-65
2022/12/14 08:45:21;;;;;;;34.28;12.10;;;-4.20;81.40;;;;;;9170239;19;20510;-64
2022/12/14 08:48:25;;;;;;;28.08;11.88;;;-4.30;81.30;;;;;;9167729;19;20035;-64
2022/12/14 08:51:30;;;;;;;28.58;10.90;;;-4.20;81.50;;;;;;9170673;19;20017;-64
2022/12/14 08:54:34;;;;;;;29.58;11.57;;;-4.30;81.30;;;;;;9170753;19;20030;-65
2022/12/14 08:57:38;;;;;;;28.38;11.35;;;-4.30;81.40;;;;;;9172043;19;20029;-64
2022/12/14 09:00:43;;;;;;;32.88;13.02;;;-4.30;81.40;;;;;;9164957;19;20032;-66
2022/12/14 09:03:48;;;;;;;29.60;11.77;;;-4.30;81.40;;;;;;9165814;19;20106;-65
2022/12/14 09:06:52;;;;;;;28.23;12.45;;;-4.30;81.40;;;;;;9165479;19;20630;-65
2022/12/14 09:09:56;;;;;;;33.67;12.05;;;-4.30;81.40;;;;;;9167539;19;20039;-65
2022/12/14 09:13:00;;;;;;;33.00;13.05;;;-4.30;81.40;;;;;;9163887;19;20014;-65
2022/12/14 09:16:08;;;;;;;31.48;13.20;;;-4.30;81.40;;;;;;9164981;19;20029;-67
2022/12/14 09:19:12;;;;;;;32.38;12.07;;;-4.30;81.50;;;;;;9170094;19;20019;-66
2022/12/14 09:22:15;;;;;;;30.15;13.73;;;-4.30;81.50;;;;;;9170857;19;20029;-66
2022/12/14 09:25:19;;;;;;;35.08;13.52;;;-4.30;81.50;;;;;;9174753;19;20019;-65
2022/12/14 09:28:23;;;;;;;36.30;13.63;;;-4.30;81.50;;;;;;9181007;19;20022;-66
2022/12/14 09:31:29;;;;;;;33.75;12.50;;;-4.30;81.50;;;;;;9175909;19;20022;-66
2022/12/14 09:34:33;;;;;;;32.05;13.43;;;-4.30;81.60;;;;;;9173266;19;20601;-66
2022/12/14 09:37:36;;;;;;;31.70;12.63;;;-4.20;81.60;;;;;;9170325;19;20018;-66
2022/12/14 09:40:44;;;;;;;40.00;14.77;;;-4.20;81.70;;;;;;9167728;19;20014;-66
2022/12/14 09:43:55;;;;;;;28.00;11.60;;;-4.20;81.70;;;;;;9176517;19;20102;-66
2022/12/14 09:47:09;;;;;;;29.48;11.77;;;-4.10;81.80;;;;;;9173067;19;20023;-65
2022/12/14 09:50:16;;;;;;;33.30;14.07;;;-4.10;81.80;;;;;;9179299;19;20108;-64
2022/12/14 09:53:22;;;;;;;32.53;12.82;;;-4.10;81.80;;;;;;9177507;19;20043;-65
2022/12/14 09:56:26;;;;;;;35.38;13.52;;;-4.00;81.80;;;;;;9174268;19;20019;-65
2022/12/14 09:59:32;;;;;;;34.88;13.80;;;-4.00;81.80;;;;;;9175263;19;20014;-65
2022/12/14 10:02:49;;;;;;;36.05;15.68;;;-3.90;81.90;;;;;;9175511;19;20020;-65
2022/12/14 10:06:08;;;;;;;34.85;14.43;;;-3.80;82.00;;;;;;9174670;19;20018;-65
2022/12/14 10:09:19;;;;;;;42.53;16.58;;;-3.70;82.10;;;;;;9173395;19;20007;-65
2022/12/14 10:12:33;;;;;;;45.88;16.45;;;-3.60;82.20;;;;;;9178742;19;20017;-64
2022/12/14 10:15:50;;;;;;;50.05;16.90;;;-3.50;82.40;;;;;;9173313;19;20020;-64
2022/12/14 10:19:17;;;;;;;34.90;14.80;;;-3.30;82.50;;;;;;9175300;19;20014;-65
2022/12/14 10:22:24;;;;;;;35.42;14.27;;;-3.20;82.40;;;;;;9173324;19;20022;-65
2022/12/14 10:25:30;;;;;;;37.20;14.60;;;-3.00;82.50;;;;;;9174820;19;20019;-66
2022/12/14 10:28:42;;;;;;;31.40;12.52;;;-2.90;82.40;;;;;;9169860;19;20019;-66
2022/12/14 10:31:53;;;;;;;31.92;13.52;;;-2.80;82.30;;;;;;9176929;19;20018;-65
2022/12/14 10:34:59;;;;;;;36.95;12.48;;;-2.70;82.30;;;;;;9178080;19;20025;-65
2022/12/14 10:38:07;;;;;;;28.67;11.57;;;-2.60;82.30;;;;;;9176842;19;20022;-66
2022/12/14 10:41:19;;;;;;;33.40;12.60;;;-2.60;82.20;;;;;;9170288;19;20053;-65
2022/12/14 10:44:31;;;;;;;32.65;11.57;;;-2.50;82.10;;;;;;9179031;19;20095;-65
2022/12/14 10:47:39;;;;;;;31.58;12.43;;;-2.40;82.10;;;;;;9174175;19;20503;-65
2022/12/14 10:50:54;;;;;;;27.42;11.23;;;-2.40;82.10;;;;;;9176468;19;20024;-65
2022/12/14 10:54:26;;;;;;;26.70;11.85;;;-2.30;82.10;;;;;;9172703;19;20054;-65
2022/12/14 10:57:30;;;;;;;27.65;11.70;;;-2.30;82.60;;;;;;9172876;19;20026;-64
2022/12/14 11:00:38;;;;;;;28.20;10.52;;;-2.30;82.00;;;;;;9172093;19;20375;-65
2022/12/14 11:03:45;;;;;;;31.55;12.10;;;-2.20;82.10;;;;;;9176839;19;20015;-65
2022/12/14 11:06:51;;;;;;;36.72;11.80;;;-2.20;82.00;;;;;;9172256;19;20116;-65
2022/12/14 11:09:55;;;;;;;28.20;11.00;;;-2.10;82.00;;;;;;9179141;19;20040;-65
2022/12/14 11:13:01;;;;;;;27.63;11.82;;;-2.10;82.00;;;;;;9179830;19;20093;-66
2022/12/14 11:16:19;;;;;;;30.63;12.38;;;-2.10;82.00;;;;;;9177160;19;20015;-66
2022/12/14 11:19:24;;;;;;;28.13;11.48;;;-2.10;82.00;;;;;;9169443;19;20018;-66
2022/12/14 11:22:43;;;;;;;25.40;11.32;;;-2.00;82.10;;;;;;9163631;19;20025;-71
2022/12/14 11:25:49;;;;;;;25.88;11.70;;;-2.00;82.10;;;;;;9176010;19;20015;-66
2022/12/14 11:28:55;;;;;;;29.10;11.60;;;-1.90;82.10;;;;;;9173254;19;20065;-68
2022/12/14 11:32:00;;;;;;;23.23;11.15;;;-1.90;82.10;;;;;;9170042;19;20340;-67
2022/12/14 11:35:04;;;;;;;27.10;10.52;;;-1.90;82.10;;;;;;9170423;19;20367;-68
2022/12/14 11:38:16;;;;;;;25.42;11.00;;;-1.90;82.00;;;;;;9166563;19;20026;-67
2022/12/14 11:41:22;;;;;;;25.58;10.98;;;-1.80;82.10;;;;;;9166951;19;20022;-68
2022/12/14 11:44:27;;;;;;;22.38;9.65;;;-1.80;82.10;;;;;;9168521;19;20032;-69
2022/12/14 11:47:31;;;;;;;20.30;10.20;;;-1.80;82.00;;;;;;9174841;19;20351;-66
2022/12/14 11:50:35;;;;;;;25.50;10.40;;;-1.70;82.00;;;;;;9166301;19;20022;-66
2022/12/14 11:53:42;;;;;;;24.75;10.32;;;-1.70;82.00;;;;;;9167098;19;20018;-63
2022/12/14 11:56:46;;;;;;;22.40;9.50;;;-1.60;82.00;;;;;;9171026;19;20324;-64
2022/12/14 11:59:53;;;;;;;26.17;9.45;;;-1.60;82.00;;;;;;9172313;19;20018;-63
2022/12/14 12:03:02;;;;;;;23.65;10.82;;;-1.60;81.90;;;;;;9171931;19;20022;-65
2022/12/14 12:06:09;;;;;;;22.58;9.27;;;-1.50;82.00;;;;;;9170483;19;20014;-66
2022/12/14 12:09:26;;;;;;;25.65;10.45;;;-1.50;82.00;;;;;;9167854;19;20039;-66
2022/12/14 12:12:30;;;;;;;23.58;9.60;;;-1.50;81.90;;;;;;9167147;19;20031;-66
2022/12/14 12:15:37;;;;;;;24.55;10.50;;;-1.40;81.90;;;;;;9169721;19;20031;-65
2022/12/14 12:18:45;;;;;;;24.75;9.68;;;-1.40;81.90;;;;;;9170361;19;20022;-65
2022/12/14 12:21:50;;;;;;;23.02;10.52;;;-1.40;81.90;;;;;;9168955;19;20066;-66
2022/12/14 12:25:00;;;;;;;23.88;9.77;;;-1.40;81.80;;;;;;9170867;19;20022;-66
2022/12/14 12:28:27;;;;;;;17.15;8.18;;;-1.40;81.80;;;;;;9175611;19;20018;-66
2022/12/14 12:31:35;;;;;;;21.33;8.95;;;-1.30;81.80;;;;;;9174907;19;20030;-65
2022/12/14 12:34:47;;;;;;;22.40;9.13;;;-1.30;81.80;;;;;;9173625;19;20018;-66
2022/12/14 12:37:55;;;;;;;24.35;9.30;;;-1.30;81.80;;;;;;9176201;19;20387;-66
2022/12/14 12:41:07;;;;;;;20.20;8.95;;;-1.30;81.80;;;;;;9172051;19;20047;-66
2022/12/14 12:44:26;;;;;;;17.23;8.10;;;-1.30;81.70;;;;;;9176101;19;20039;-66
2022/12/14 12:47:33;;;;;;;15.38;7.85;;;-1.20;81.70;;;;;;9176252;19;20018;-66
2022/12/14 12:50:52;;;;;;;21.75;8.65;;;-1.20;81.80;;;;;;9172114;19;20057;-65
2022/12/14 12:54:00;;;;;;;20.70;8.55;;;-1.20;81.70;;;;;;9160302;19;20475;-65
2022/12/14 12:57:08;;;;;;;20.58;8.13;;;-1.20;81.60;;;;;;9164176;19;20018;-64
2022/12/14 13:00:18;;;;;;;18.60;8.23;;;-1.20;81.60;;;;;;9159768;19;21168;-65
2022/12/14 13:03:27;;;;;;;20.15;8.02;;;-1.10;81.70;;;;;;9158057;19;20018;-66
2022/12/14 13:06:39;;;;;;;23.65;8.38;;;-1.10;81.70;;;;;;9161415;19;20018;-65
2022/12/14 13:09:47;;;;;;;22.45;8.48;;;-1.10;81.60;;;;;;9156153;19;20045;-64
2022/12/14 13:12:57;;;;;;;21.23;8.20;;;-1.10;81.70;;;;;;9159355;19;20043;-66
2022/12/14 13:16:14;;;;;;;17.20;8.18;;;-1.10;81.60;;;;;;9167139;19;20039;-66
2022/12/14 13:19:25;;;;;;;16.10;8.27;;;-1.10;81.60;;;;;;9159018;19;20019;-66
2022/12/14 13:22:49;;;;;;;20.80;8.88;;;-1.10;81.60;;;;;;9165919;19;20078;-67
2022/12/14 13:26:08;;;;;;;20.42;8.73;;;-1.10;81.60;;;;;;9168067;19;20022;-67
2022/12/14 13:29:21;;;;;;;27.08;9.43;;;-1.00;81.50;;;;;;9163369;19;20057;-66
2022/12/14 13:32:38;;;;;;;19.30;9.07;;;-1.00;81.60;;;;;;9162775;19;20015;-66
2022/12/14 13:36:14;;;;;;;23.27;9.27;;;-1.00;81.50;;;;;;9161640;19;20051;-67
2022/12/14 13:39:55;;;;;;;21.13;8.75;;;-1.00;81.50;;;;;;9166556;19;20082;-65
2022/12/14 13:43:12;;;;;;;16.98;8.43;;;-1.00;81.50;;;;;;9171921;19;20010;-65
2022/12/14 13:46:24;;;;;;;16.88;8.52;;;-1.00;81.50;;;;;;9173198;19;20895;-66
2022/12/14 13:49:30;;;;;;;13.68;6.53;;;-1.00;81.40;;;;;;9174729;19;20416;-66
2022/12/14 13:52:39;;;;;;;21.10;9.32;;;-1.00;81.50;;;;;;9172796;19;20051;-66
2022/12/14 13:55:50;;;;;;;18.65;8.70;;;-1.00;81.50;;;;;;9173384;19;20045;-67
2022/12/14 13:58:57;;;;;;;21.05;8.48;;;-1.00;81.40;;;;;;9173923;19;20562;-66
2022/12/14 14:02:04;;;;;;;25.25;9.55;;;-1.00;81.40;;;;;;9173561;19;20086;-66
2022/12/14 14:05:39;;;;;;;21.10;8.65;;;-1.00;81.40;;;;;;9182755;19;20029;-66
2022/12/14 14:08:43;;;;;;;17.10;8.40;;;-1.00;81.40;;;;;;9181947;19;20015;-66
2022/12/14 14:11:58;;;;;;;20.60;9.38;;;-1.00;81.40;;;;;;9181932;19;20082;-66
2022/12/14 14:15:17;;;;;;;20.67;8.70;;;-1.00;81.40;;;;;;9181504;19;20479;-66
2022/12/14 14:18:35;;;;;;;20.98;9.07;;;-1.00;81.50;;;;;;9179641;19;20041;-66
2022/12/14 14:21:44;;;;;;;21.25;8.95;;;-1.00;81.40;;;;;;9177234;19;20024;-66
2022/12/14 14:25:46;;;;;;;20.10;8.85;;;-1.10;82.00;;;;;;9174795;19;20038;-65
2022/12/14 14:29:16;;;;;;;18.05;8.77;;;-1.00;81.40;;;;;;9166642;19;20018;-66
2022/12/14 14:32:38;;;;;;;19.63;8.85;;;-1.10;81.40;;;;;;9166606;19;20014;-66
2022/12/14 14:35:42;;;;;;;27.55;9.50;;;-1.10;81.40;;;;;;9170150;19;20023;-66
2022/12/14 14:38:46;;;;;;;18.15;8.82;;;-1.10;81.40;;;;;;9173901;19;20026;-66
2022/12/14 14:41:54;;;;;;;24.95;9.43;;;-1.10;81.40;;;;;;9177744;19;20018;-66
2022/12/14 14:45:00;;;;;;;24.35;9.75;;;-1.10;81.40;;;;;;9180019;19;20387;-67
2022/12/14 14:48:11;;;;;;;20.48;8.48;;;-1.20;81.30;;;;;;9175175;19;20018;-65
2022/12/14 14:51:21;;;;;;;22.88;10.10;;;-1.20;81.40;;;;;;9177875;19;20021;-67
2022/12/14 14:54:32;;;;;;;23.63;9.05;;;-1.20;81.40;;;;;;9177026;19;20019;-66
2022/12/14 14:58:01;;;;;;;19.60;9.20;;;-1.20;81.30;;;;;;9179829;19;20098;-66
2022/12/14 15:01:25;;;;;;;20.75;8.90;;;-1.20;81.40;;;;;;9177179;19;20018;-66
2022/12/14 15:04:38;;;;;;;23.38;8.52;;;-1.20;81.40;;;;;;9179378;19;20036;-66
2022/12/14 15:07:43;;;;;;;19.87;10.00;;;-1.30;81.30;;;;;;9178094;19;20018;-66
2022/12/14 15:10:49;;;;;;;22.77;9.13;;;-1.30;81.30;;;;;;9179414;19;20018;-66
2022/12/14 15:14:00;;;;;;;20.42;10.20;;;-1.30;81.30;;;;;;9176282;19;20019;-65
2022/12/14 15:17:14;;;;;;;24.40;10.32;;;-1.30;81.30;;;;;;9177280;19;20037;-66
2022/12/14 15:20:24;;;;;;;22.35;9.68;;;-1.30;81.40;;;;;;9170936;19;20018;-66
2022/12/14 15:23:37;;;;;;;23.80;9.20;;;-1.40;81.30;;;;;;9179705;19;20045;-65
2022/12/14 15:26:42;;;;;;;27.02;10.88;;;-1.40;81.30;;;;;;9178575;19;20089;-66
2022/12/14 15:29:48;;;;;;;29.13;11.15;;;-1.40;81.30;;;;;;9180183;19;20432;-66
2022/12/14 15:32:57;;;;;;;26.08;11.20;;;-1.40;81.30;;;;;;9178420;19;20014;-66
2022/12/14 15:36:06;;;;;;;30.98;11.40;;;-1.40;81.40;;;;;;9170480;19;20035;-66
2022/12/14 15:39:28;;;;;;;31.10;12.07;;;-1.40;81.30;;;;;;9167769;19;20014;-66
2022/12/14 15:42:32;;;;;;;31.77;13.23;;;-1.50;81.30;;;;;;9165191;19;20023;-67
2022/12/14 15:45:45;;;;;;;28.15;12.43;;;-1.50;81.30;;;;;;9169275;19;20015;-66
2022/12/14 15:48:56;;;;;;;34.80;14.18;;;-1.50;81.30;;;;;;9171415;19;20014;-66
2022/12/14 15:52:00;;;;;;;37.80;15.02;;;-1.50;81.20;;;;;;9174708;19;20015;-66
2022/12/14 15:55:04;;;;;;;35.47;12.25;;;-1.50;81.30;;;;;;9175720;19;20393;-65
2022/12/14 15:58:11;;;;;;;39.35;14.07;;;-1.50;81.30;;;;;;9176779;19;20018;-65
2022/12/14 16:01:22;;;;;;;38.65;17.05;;;-1.60;81.20;;;;;;9174639;19;20030;-65
2022/12/14 16:04:28;;;;;;;56.03;19.55;;;-1.60;81.20;;;;;;9177987;19;20017;-65
2022/12/14 16:07:37;;;;;;;43.83;17.65;;;-1.60;81.20;;;;;;9178190;19;20373;-65
2022/12/14 16:10:41;;;;;;;49.03;20.13;;;-1.70;81.10;;;;;;9168852;19;20032;-65
2022/12/14 16:13:47;;;;;;;53.35;22.38;;;-1.70;81.10;;;;;;9156865;19;20468;-66